Time;durP1;ratioP1;P1;durP2;ratioP2;P2;SDS_P1;SDS_P2;PMS_P1;PMS_P2;Temp;Humidity;BMP_temperature;BMP_pressure;BME280_temperature;BME280_humidity;BME280_pressure;Samples;Min_cycle;Max_cycle;Signal;HPM_P1;HPM_P2
2021/04/23 00:00:42;;;;;;;6.80;6.20;;;;;;;3.73;76.17;98554.63;1828890;78;20983;-64
2021/04/23 00:03:24;;;;;;;;;;;;;;;3.72;76.20;98555.54;1819936;78;21195;-62
2021/04/23 00:06:15;;;;;;;8.30;6.03;;;;;;;3.69;76.29;98556.98;1805885;79;20110;-63
2021/04/23 00:08:45;;;;;;;7.75;6.75;;;;;;;3.65;76.30;98560.70;1805512;79;20944;-62
2021/04/23 00:11:13;;;;;;;7.20;6.22;;;;;;;3.62;76.40;98561.20;1805799;79;20901;-62
2021/04/23 00:13:41;;;;;;;8.15;7.35;;;;;;;3.60;76.43;98555.09;1805813;79;20995;-64
2021/04/23 00:16:11;;;;;;;12.78;7.40;;;;;;;3.58;76.41;98560.94;1805802;79;21319;-64
2021/04/23 00:18:39;;;;;;;8.80;7.20;;;;;;;3.57;76.53;98559.20;1805721;79;20991;-64
2021/04/23 00:21:10;;;;;;;8.58;6.90;;;;;;;3.55;76.63;98561.06;1805750;79;20968;-64
2021/04/23 00:23:39;;;;;;;8.08;6.62;;;;;;;3.54;76.78;98556.66;1805661;79;21429;-63
2021/04/23 00:26:07;;;;;;;7.65;6.70;;;;;;;3.52;76.70;98560.31;1805843;79;21004;-63
2021/04/23 00:28:35;;;;;;;13.05;7.60;;;;;;;3.49;76.72;98560.44;1805827;79;21193;-63
2021/04/23 00:31:03;;;;;;;8.23;6.83;;;;;;;3.46;76.83;98554.77;1805693;79;20924;-63
2021/04/23 00:33:31;;;;;;;8.20;7.15;;;;;;;3.44;76.80;98561.94;1805727;79;20873;-64
2021/04/23 00:35:59;;;;;;;10.28;6.35;;;;;;;3.46;76.74;98564.53;1805784;79;20921;-63
2021/04/23 00:38:28;;;;;;;8.80;6.78;;;;;;;3.45;76.76;98562.31;1805799;79;21027;-64
2021/04/23 00:41:06;;;;;;;10.65;6.78;;;;;;;3.44;76.77;98573.41;1805830;79;22265;-64
2021/04/23 00:43:37;;;;;;;12.23;7.10;;;;;;;3.44;76.82;98565.45;1803213;79;20956;-64
2021/04/23 00:46:04;;;;;;;7.97;7.25;;;;;;;3.43;76.78;98572.14;1805905;79;21331;-64
2021/04/23 00:48:34;;;;;;;8.93;8.03;;;;;;;3.42;76.67;98566.41;1805759;79;20904;-64
2021/04/23 00:51:10;;;;;;;;;;;;;;;3.42;76.58;98565.97;1808531;79;20909;-62
2021/04/23 00:53:41;;;;;;;12.75;8.00;;;;;;;3.43;76.65;98569.48;1805792;79;22345;-64
2021/04/23 00:56:13;;;;;;;8.95;7.70;;;;;;;3.41;76.88;98566.88;1805723;79;20972;-63
2021/04/23 00:58:40;;;;;;;8.25;7.10;;;;;;;3.44;76.90;98564.59;1805793;79;20996;-63
2021/04/23 01:01:24;;;;;;;8.70;7.90;;;;;;;3.45;77.02;98563.64;1805701;79;21540;-63
2021/04/23 01:03:53;;;;;;;11.10;7.08;;;;;;;3.47;77.06;98567.56;1795897;79;20908;-64
2021/04/23 01:06:26;;;;;;;8.48;7.75;;;;;;;3.45;77.12;98566.30;1814894;79;21325;-64
2021/04/23 01:08:56;;;;;;;11.08;7.25;;;;;;;3.47;77.44;98571.11;1814854;79;20935;-64
2021/04/23 01:11:24;;;;;;;7.70;6.78;;;;;;;3.46;77.41;98569.84;1814875;79;20900;-64
2021/04/23 01:13:52;;;;;;;9.05;7.47;;;;;;;3.47;77.65;98575.53;1814900;79;20900;-64
2021/04/23 01:16:24;;;;;;;9.10;6.92;;;;;;;3.46;77.51;98577.81;1783880;79;20964;-64
2021/04/23 01:18:53;;;;;;;7.67;6.87;;;;;;;3.47;77.46;98577.75;1814904;78;21353;-64
2021/04/23 01:21:28;;;;;;;9.45;7.37;;;;;;;3.49;77.46;98579.88;1814792;79;21540;-63
2021/04/23 01:23:57;;;;;;;12.43;6.72;;;;;;;3.50;77.65;98581.62;1814903;79;21302;-63
2021/04/23 01:26:31;;;;;;;7.58;6.87;;;;;;;3.51;77.57;98578.02;1814936;79;21449;-63
2021/04/23 01:28:58;;;;;;;7.70;6.65;;;;;;;3.53;77.58;98573.54;1814879;79;21079;-62
2021/04/23 01:31:29;;;;;;;7.30;6.37;;;;;;;3.54;77.41;98575.25;1814855;79;21258;-63
2021/04/23 01:34:13;;;;;;;10.88;7.72;;;;;;;3.56;77.28;98577.84;1814806;79;21011;-63
2021/04/23 01:36:41;;;;;;;9.35;7.42;;;;;;;3.57;77.22;98576.46;1815076;79;21401;-63
2021/04/23 01:39:13;;;;;;;8.08;7.28;;;;;;;3.57;77.09;98575.13;1814823;79;20991;-64
2021/04/23 01:41:42;;;;;;;10.13;7.28;;;;;;;3.59;76.98;98583.90;1814770;79;20972;-64
2021/04/23 01:44:10;;;;;;;12.13;7.67;;;;;;;3.59;77.07;98575.93;1814838;79;21270;-64
2021/04/23 01:46:38;;;;;;;8.98;6.83;;;;;;;3.61;76.53;98576.77;1814790;79;20995;-64
2021/04/23 01:49:10;;;;;;;11.57;6.80;;;;;;;3.62;76.24;98581.13;1814860;79;20932;-64
2021/04/23 01:51:45;;;;;;;;;;;;;;;3.66;76.05;98581.01;1817483;79;21425;-64
2021/04/23 01:54:14;;;;;;;8.90;7.50;;;;;;;3.67;76.03;98582.75;1814469;79;20153;-63
2021/04/23 01:56:44;;;;;;;7.70;6.45;;;;;;;3.66;75.87;98591.20;1814853;79;21417;-64
2021/04/23 01:59:11;;;;;;;7.72;6.47;;;;;;;3.66;75.57;98583.67;1814791;79;20988;-64
2021/04/23 02:01:40;;;;;;;13.43;7.00;;;;;;;3.68;75.52;98590.66;1814770;79;21008;-64
2021/04/23 02:04:09;;;;;;;10.58;5.97;;;;;;;3.69;75.36;98590.19;1809015;78;20924;-65
2021/04/23 02:06:39;;;;;;;9.98;7.87;;;;;;;3.71;75.41;98587.03;1805672;79;20983;-63
2021/04/23 02:09:08;;;;;;;12.88;7.20;;;;;;;3.72;75.27;98588.75;1805737;79;21350;-64
2021/04/23 02:11:38;;;;;;;11.70;7.12;;;;;;;3.72;75.16;98592.29;1805681;79;20889;-64
2021/04/23 02:14:06;;;;;;;8.95;7.20;;;;;;;3.73;74.93;98595.80;1805716;79;20936;-64
2021/04/23 02:16:35;;;;;;;9.63;6.12;;;;;;;3.72;74.65;98600.27;1805669;79;20928;-64
2021/04/23 02:19:07;;;;;;;8.13;6.53;;;;;;;3.73;74.56;98601.11;1805690;79;20916;-64
2021/04/23 02:21:36;;;;;;;8.93;7.00;;;;;;;3.73;74.57;98605.10;1806034;79;22337;-63
2021/04/23 02:24:06;;;;;;;9.00;7.67;;;;;;;3.71;74.48;98602.98;1805667;79;20940;-63
2021/04/23 02:26:35;;;;;;;11.68;7.87;;;;;;;3.71;74.48;98601.17;1805769;79;20924;-63
2021/04/23 02:29:10;;;;;;;10.50;7.97;;;;;;;3.71;74.47;98606.96;1805776;79;21450;-63
2021/04/23 02:31:40;;;;;;;9.40;6.67;;;;;;;3.70;74.36;98602.56;1805780;79;20992;-62
2021/04/23 02:34:11;;;;;;;12.55;7.40;;;;;;;3.67;74.21;98606.66;1805816;79;21129;-63
2021/04/23 02:36:40;;;;;;;11.78;6.20;;;;;;;3.66;74.17;98606.25;1805627;79;20972;-63
2021/04/23 02:39:10;;;;;;;9.55;6.55;;;;;;;3.66;74.10;98610.23;1805716;79;21047;-64
2021/04/23 02:41:40;;;;;;;10.55;8.15;;;;;;;3.64;74.00;98612.95;1805635;79;20976;-65
2021/04/23 02:44:08;;;;;;;9.78;7.90;;;;;;;3.64;73.92;98610.76;1805743;79;20996;-63
2021/04/23 02:46:36;;;;;;;10.08;7.45;;;;;;;3.64;73.91;98616.08;1805791;79;22265;-63
2021/04/23 02:49:05;;;;;;;7.75;6.80;;;;;;;3.61;73.77;98616.61;1805633;79;20928;-63
2021/04/23 02:51:37;;;;;;;13.65;6.62;;;;;;;3.60;73.77;98622.83;1805690;79;20904;-63
2021/04/23 02:54:07;;;;;;;9.33;7.37;;;;;;;3.56;73.61;98615.92;1805648;79;21000;-63
2021/04/23 02:56:34;;;;;;;9.43;7.37;;;;;;;3.54;73.62;98615.09;1805785;79;20925;-64
2021/04/23 02:59:05;;;;;;;7.53;6.67;;;;;;;3.51;73.70;98617.86;1805737;79;21377;-64
2021/04/23 03:01:40;;;;;;;11.63;6.92;;;;;;;3.48;73.70;98620.63;1805652;79;20877;-65
2021/04/23 03:04:08;;;;;;;8.88;7.95;;;;;;;3.44;73.83;98616.37;1809840;79;20999;-64
2021/04/23 03:06:37;;;;;;;13.62;7.78;;;;;;;3.39;73.74;98620.52;1814710;78;21003;-65
2021/04/23 03:09:06;;;;;;;7.72;6.28;;;;;;;3.36;73.81;98621.06;1814991;79;20908;-63
2021/04/23 03:11:35;;;;;;;9.25;6.97;;;;;;;3.33;73.90;98623.87;1814944;79;21352;-63
2021/04/23 03:14:03;;;;;;;10.43;7.85;;;;;;;3.31;74.03;98620.38;1814899;79;20896;-63
2021/04/23 03:16:31;;;;;;;11.10;7.03;;;;;;;3.27;74.13;98618.78;1814924;79;20960;-62
2021/04/23 03:18:58;;;;;;;8.18;7.37;;;;;;;3.23;74.26;98622.88;1814908;79;20982;-63
2021/04/23 03:21:29;;;;;;;11.93;7.75;;;;;;;3.20;74.32;98621.66;1814958;79;21003;-63
2021/04/23 03:23:57;;;;;;;8.60;7.67;;;;;;;3.16;74.38;98627.98;1814918;79;21362;-63
2021/04/23 03:26:25;;;;;;;9.13;6.92;;;;;;;3.14;74.46;98625.84;1814878;79;20940;-63
2021/04/23 03:28:54;;;;;;;8.63;7.08;;;;;;;3.12;74.59;98627.67;1814945;79;20876;-64
2021/04/23 03:31:21;;;;;;;8.05;6.97;;;;;;;3.11;74.53;98635.72;1814938;79;20999;-64
2021/04/23 03:33:49;;;;;;;12.10;7.87;;;;;;;3.06;74.57;98638.53;1814927;79;21447;-62
2021/04/23 03:36:16;;;;;;;11.80;8.30;;;;;;;3.04;74.49;98637.70;1814971;79;21366;-64
2021/04/23 03:38:46;;;;;;;10.18;7.58;;;;;;;3.00;74.52;98637.41;1814872;79;20928;-63
2021/04/23 03:41:17;;;;;;;12.07;7.60;;;;;;;2.97;74.51;98644.16;1814945;79;20924;-63
2021/04/23 03:43:47;;;;;;;12.45;7.78;;;;;;;2.95;74.47;98644.20;1814998;79;21031;-63
2021/04/23 03:46:14;;;;;;;10.48;7.47;;;;;;;2.96;74.58;98647.72;1814983;78;20908;-63
2021/04/23 03:48:44;;;;;;;10.95;7.83;;;;;;;2.96;74.46;98647.72;1814952;79;21184;-63
2021/04/23 03:51:17;;;;;;;13.15;8.25;;;;;;;2.95;74.46;98651.28;1814917;78;20881;-64
2021/04/23 03:53:45;;;;;;;10.72;7.72;;;;;;;2.97;74.52;98660.08;1814912;78;20920;-63
2021/04/23 03:56:14;;;;;;;11.00;7.50;;;;;;;2.98;74.54;98655.16;1815023;79;20876;-63
2021/04/23 03:58:44;;;;;;;13.13;8.58;;;;;;;3.04;74.32;98661.14;1814998;79;20920;-63
2021/04/23 04:01:17;;;;;;;10.35;7.40;;;;;;;3.13;74.07;98660.41;1814886;79;21184;-63
2021/04/23 04:03:46;;;;;;;6.87;5.72;;;;;;;3.22;73.89;98674.22;1812886;78;21354;-63
2021/04/23 04:06:13;;;;;;;12.60;7.62;;;;;;;3.33;73.46;98674.31;1805825;79;20912;-64
2021/04/23 04:08:42;;;;;;;13.85;7.37;;;;;;;3.41;73.24;98674.42;1805746;79;21326;-63
2021/04/23 04:11:12;;;;;;;10.82;7.65;;;;;;;3.51;72.82;98670.97;1805824;78;20960;-63
2021/04/23 04:13:42;;;;;;;11.15;8.03;;;;;;;3.65;72.85;98678.91;1805751;79;20932;-64
2021/04/23 04:16:09;;;;;;;11.20;7.90;;;;;;;3.84;72.80;98681.28;1805859;79;20976;-64
2021/04/23 04:18:38;;;;;;;11.73;6.92;;;;;;;4.07;72.24;98682.22;1805790;79;21024;-64
2021/04/23 04:21:05;;;;;;;8.83;5.97;;;;;;;4.34;71.30;98690.91;1805774;79;20916;-63
2021/04/23 04:23:34;;;;;;;9.15;5.70;;;;;;;4.63;70.42;98687.05;1805678;79;20905;-63
2021/04/23 04:26:04;;;;;;;8.83;6.58;;;;;;;4.96;69.60;98690.59;1805869;79;23594;-64
2021/04/23 04:28:32;;;;;;;8.45;6.75;;;;;;;5.28;68.64;98688.34;1805754;79;20984;-63
2021/04/23 04:31:00;;;;;;;10.85;7.53;;;;;;;5.58;67.81;98686.16;1805769;79;20976;-64
2021/04/23 04:33:31;;;;;;;7.53;6.08;;;;;;;5.91;66.87;98695.36;1802750;79;20920;-64
2021/04/23 04:35:59;;;;;;;10.50;6.20;;;;;;;6.22;65.78;98697.98;1805818;79;20928;-64
2021/04/23 04:38:27;;;;;;;9.38;6.95;;;;;;;6.55;64.62;98699.99;1805777;79;21371;-64
2021/04/23 04:40:55;;;;;;;8.10;6.12;;;;;;;6.85;63.37;98698.95;1805698;79;20943;-63
2021/04/23 04:43:23;;;;;;;10.05;5.92;;;;;;;7.13;61.91;98705.13;1805703;79;21358;-63
2021/04/23 04:45:50;;;;;;;9.33;6.47;;;;;;;7.39;61.42;98702.92;1805694;79;22067;-64
2021/04/23 04:48:18;;;;;;;8.48;5.33;;;;;;;7.66;60.76;98710.45;1805718;79;20961;-65
2021/04/23 04:50:53;;;;;;;6.55;5.40;;;;;;;7.85;58.64;98712.56;1805748;79;21297;-63
2021/04/23 04:53:21;;;;;;;8.85;6.10;;;;;;;8.04;58.22;98705.75;1805713;79;20980;-64
2021/04/23 04:55:52;;;;;;;9.88;7.35;;;;;;;8.21;57.93;98716.84;1805825;79;21544;-64
2021/04/23 04:58:24;;;;;;;11.83;6.45;;;;;;;8.38;58.10;98721.77;1805744;79;20964;-64
2021/04/23 05:00:51;;;;;;;8.65;6.25;;;;;;;8.51;56.06;98720.15;1805846;79;21409;-64
2021/04/23 05:03:20;;;;;;;10.03;6.87;;;;;;;8.62;55.68;98716.39;1805630;79;21355;-64
2021/04/23 05:05:48;;;;;;;11.25;6.60;;;;;;;8.77;55.89;98721.86;1814112;79;21039;-64
2021/04/23 05:08:17;;;;;;;8.53;6.87;;;;;;;8.87;54.97;98719.02;1814950;79;20976;-64
2021/04/23 05:10:45;;;;;;;9.03;6.60;;;;;;;8.98;54.96;98719.75;1814812;79;20868;-63
2021/04/23 05:13:12;;;;;;;9.90;6.45;;;;;;;9.12;54.67;98717.12;1814903;79;20916;-64
2021/04/23 05:15:42;;;;;;;12.33;6.92;;;;;;;9.28;54.30;98714.41;1814820;79;21184;-64
2021/04/23 05:18:10;;;;;;;7.22;6.00;;;;;;;9.40;53.31;98715.03;1814800;79;20992;-64
2021/04/23 05:20:39;;;;;;;10.50;6.30;;;;;;;9.54;53.06;98717.38;1783888;79;20992;-64
2021/04/23 05:23:10;;;;;;;9.05;6.47;;;;;;;9.62;52.05;98716.43;1814772;79;21464;-66
2021/04/23 05:25:39;;;;;;;7.25;5.58;;;;;;;9.75;51.90;98716.55;1814961;79;21406;-65
2021/04/23 05:28:07;;;;;;;8.03;5.87;;;;;;;9.89;52.24;98719.73;1814890;79;21177;-64
2021/04/23 05:30:36;;;;;;;8.53;6.00;;;;;;;9.99;51.17;98718.67;1814747;79;20932;-64
2021/04/23 05:33:06;;;;;;;8.10;6.22;;;;;;;10.09;50.79;98722.04;1814869;79;20924;-64
2021/04/23 05:35:35;;;;;;;10.53;6.78;;;;;;;10.22;50.93;98720.79;1814944;79;20920;-65
2021/04/23 05:38:05;;;;;;;9.08;7.45;;;;;;;10.32;50.40;98725.09;1814948;79;20904;-66
2021/04/23 05:40:43;;;;;;;8.25;6.25;;;;;;;10.42;50.84;98728.97;1814850;79;21343;-67
2021/04/23 05:43:16;;;;;;;9.85;5.62;;;;;;;10.54;50.44;98728.66;1814837;79;20963;-66
2021/04/23 05:45:45;;;;;;;10.70;6.20;;;;;;;10.54;48.79;98728.66;1814911;79;20916;-64
2021/04/23 05:48:16;;;;;;;8.95;6.22;;;;;;;10.70;49.01;98727.67;1814982;79;20881;-64
2021/04/23 05:50:44;;;;;;;12.68;6.33;;;;;;;10.77;48.77;98725.83;1814872;78;20924;-65
2021/04/23 05:53:12;;;;;;;6.70;5.90;;;;;;;10.73;47.69;98726.98;1814787;79;21185;-69
2021/04/23 05:55:42;;;;;;;12.53;5.58;;;;;;;10.75;48.41;98738.52;1814827;79;20888;-64
2021/04/23 05:58:11;;;;;;;6.10;4.58;;;;;;;10.79;48.15;98731.96;1814338;79;21847;-64
2021/04/23 06:00:42;;;;;;;10.72;5.50;;;;;;;10.89;47.86;98732.70;1814717;79;20999;-65
2021/04/23 06:03:13;;;;;;;7.78;5.22;;;;;;;10.94;48.08;98730.58;1814916;79;20935;-64
2021/04/23 06:05:42;;;;;;;8.33;5.20;;;;;;;10.95;47.32;98724.25;1825343;78;22209;-66
2021/04/23 06:08:12;;;;;;;5.45;4.03;;;;;;;11.00;47.34;98734.20;1828691;78;20991;-66
2021/04/23 06:10:42;;;;;;;10.98;5.25;;;;;;;11.05;47.40;98724.49;1828683;78;21006;-63
2021/04/23 06:13:11;;;;;;;11.22;5.45;;;;;;;11.15;47.76;98732.34;1828604;78;21003;-65
2021/04/23 06:15:38;;;;;;;9.05;4.40;;;;;;;11.31;48.39;98731.69;1828722;78;20999;-68
2021/04/23 06:18:07;;;;;;;5.25;3.80;;;;;;;11.48;47.82;98733.25;1828780;78;21362;-65
2021/04/23 06:20:35;;;;;;;7.12;4.08;;;;;;;11.62;45.78;98736.81;1828710;78;20924;-63
2021/04/23 06:23:02;;;;;;;7.10;4.33;;;;;;;11.69;46.25;98735.44;1828588;78;20939;-64
2021/04/23 06:25:30;;;;;;;6.90;4.33;;;;;;;11.74;45.33;98739.52;1828773;78;21448;-65
2021/04/23 06:27:59;;;;;;;5.20;3.70;;;;;;;11.76;45.16;98742.10;1828765;78;20924;-64
2021/04/23 06:30:29;;;;;;;4.75;3.40;;;;;;;11.76;45.44;98746.14;1828667;78;21376;-64
2021/04/23 06:33:00;;;;;;;6.17;3.65;;;;;;;11.75;44.75;98742.59;1828609;78;21037;-66
2021/04/23 06:35:32;;;;;;;5.12;3.33;;;;;;;11.74;44.66;98737.32;1828738;78;20947;-67
2021/04/23 06:38:00;;;;;;;7.75;3.72;;;;;;;11.72;45.03;98738.77;1828642;78;20979;-65
2021/04/23 06:40:29;;;;;;;4.78;3.15;;;;;;;11.81;45.35;98748.05;1828684;78;21440;-65
2021/04/23 06:42:56;;;;;;;7.47;3.58;;;;;;;11.85;44.68;98740.12;1828674;78;21330;-65
2021/04/23 06:45:25;;;;;;;7.30;3.58;;;;;;;11.88;44.66;98745.30;1828745;78;20896;-65
2021/04/23 06:47:52;;;;;;;9.03;3.72;;;;;;;11.89;44.67;98745.69;1828819;78;21361;-66
2021/04/23 06:50:22;;;;;;;7.08;4.08;;;;;;;11.82;44.89;98749.76;1828768;78;20975;-65
2021/04/23 06:52:53;;;;;;;6.85;4.42;;;;;;;11.79;44.49;98749.97;1828853;78;20978;-66
2021/04/23 06:55:21;;;;;;;7.12;3.98;;;;;;;11.71;44.60;98748.30;1828881;78;21440;-65
2021/04/23 06:57:51;;;;;;;8.15;3.17;;;;;;;11.68;45.43;98748.04;1828695;78;20975;-65
2021/04/23 07:00:27;;;;;;;7.10;3.83;;;;;;;11.72;44.21;98743.30;1828894;78;21362;-63
2021/04/23 07:02:55;;;;;;;5.83;3.33;;;;;;;11.73;44.28;98749.04;1828673;78;20943;-63
2021/04/23 07:05:24;;;;;;;5.42;3.55;;;;;;;11.88;45.12;98750.68;1817068;78;20901;-64
2021/04/23 07:07:53;;;;;;;4.17;3.35;;;;;;;11.95;45.38;98747.59;1805844;79;21350;-63
2021/04/23 07:10:26;;;;;;;6.37;3.17;;;;;;;11.97;43.81;98752.41;1805781;79;20972;-63
2021/04/23 07:12:55;;;;;;;3.80;2.90;;;;;;;12.04;44.11;98751.00;1805904;79;21343;-64
2021/04/23 07:15:26;;;;;;;4.92;2.17;;;;;;;11.99;43.67;98747.78;1805743;79;20941;-67
2021/04/23 07:17:55;;;;;;;3.65;2.12;;;;;;;12.02;42.39;98755.64;1805849;79;20905;-63
2021/04/23 07:20:26;;;;;;;7.75;2.77;;;;;;;11.99;41.69;98753.16;1803878;79;21360;-65
2021/04/23 07:22:55;;;;;;;7.33;3.27;;;;;;;11.93;42.36;98752.63;1805687;79;20955;-66
2021/04/23 07:25:23;;;;;;;5.28;2.75;;;;;;;11.76;42.02;98751.52;1805815;79;21335;-65
2021/04/23 07:27:53;;;;;;;3.92;2.67;;;;;;;11.80;42.98;98749.02;1805776;79;20925;-68
2021/04/23 07:30:25;;;;;;;3.33;1.95;;;;;;;11.74;42.93;98752.12;1751793;79;20925;-62
2021/04/23 07:32:52;;;;;;;8.73;2.67;;;;;;;11.75;43.58;98753.85;1805977;79;21093;-62
2021/04/23 07:35:20;;;;;;;4.85;2.12;;;;;;;11.68;44.59;98749.84;1805693;79;20988;-63
2021/04/23 07:37:49;;;;;;;5.92;2.70;;;;;;;11.64;42.58;98749.20;1805862;79;21004;-64
2021/04/23 07:40:20;;;;;;;4.33;2.52;;;;;;;11.66;42.65;98742.38;1805832;79;20980;-64
2021/04/23 07:42:48;;;;;;;6.22;2.67;;;;;;;11.64;41.78;98745.66;1805862;79;21624;-64
2021/04/23 07:45:17;;;;;;;3.33;2.85;;;;;;;11.81;43.06;98739.98;1805832;79;21317;-65
2021/04/23 07:47:45;;;;;;;3.47;2.50;;;;;;;12.00;43.31;98744.98;1805809;79;20925;-63
2021/04/23 07:50:18;;;;;;;4.20;2.10;;;;;;;12.14;43.59;98748.52;1805813;79;20916;-62
2021/04/23 07:52:46;;;;;;;3.22;2.15;;;;;;;12.21;42.46;98753.86;1805788;79;20873;-62
2021/04/23 07:55:15;;;;;;;5.10;2.50;;;;;;;12.22;42.60;98744.33;1805870;79;20916;-63
2021/04/23 07:57:46;;;;;;;2.65;1.87;;;;;;;12.16;41.46;98750.15;1805837;79;22116;-62
2021/04/23 08:00:18;;;;;;;5.10;3.62;;;;;;;12.10;42.25;98751.92;1805889;79;21342;-63
2021/04/23 08:02:46;;;;;;;3.67;3.05;;;;;;;11.95;41.12;98748.95;1805831;79;20885;-63
2021/04/23 08:05:16;;;;;;;5.15;2.50;;;;;;;11.72;41.46;98747.34;1805767;79;20936;-62
2021/04/23 08:07:47;;;;;;;2.80;2.00;;;;;;;11.50;42.16;98750.63;1802524;79;21286;-64
2021/04/23 08:10:17;;;;;;;3.47;2.00;;;;;;;11.41;42.50;98749.41;1805822;79;21367;-63
2021/04/23 08:12:49;;;;;;;5.75;2.37;;;;;;;11.40;42.34;98742.32;1805646;79;20925;-63
2021/04/23 08:15:20;;;;;;;3.37;1.60;;;;;;;11.37;43.22;98746.56;1805871;79;21437;-63
2021/04/23 08:17:48;;;;;;;3.12;1.90;;;;;;;11.36;43.52;98744.83;1805744;79;21114;-64
2021/04/23 08:20:18;;;;;;;3.25;1.92;;;;;;;11.38;42.64;98749.61;1805854;79;21046;-63
2021/04/23 08:22:48;;;;;;;3.50;1.87;;;;;;;11.40;41.84;98749.05;1805805;79;22141;-64
2021/04/23 08:25:17;;;;;;;3.95;2.08;;;;;;;11.39;42.66;98748.66;1805768;79;20944;-64
2021/04/23 08:27:46;;;;;;;7.22;3.12;;;;;;;11.47;42.30;98744.95;1805795;79;20928;-63
2021/04/23 08:30:17;;;;;;;5.05;1.92;;;;;;;11.49;41.08;98753.78;1805762;79;20940;-64
2021/04/23 08:32:45;;;;;;;4.55;2.62;;;;;;;11.54;40.22;98751.66;1805813;79;20865;-64
2021/04/23 08:35:14;;;;;;;3.60;1.60;;;;;;;11.62;40.18;98757.88;1805813;79;21354;-64
2021/04/23 08:37:44;;;;;;;4.05;2.37;;;;;;;11.54;40.23;98754.35;1805773;79;21346;-63
2021/04/23 08:40:14;;;;;;;3.37;2.20;;;;;;;11.47;41.42;98748.14;1805789;79;20873;-64
2021/04/23 08:42:43;;;;;;;4.28;2.20;;;;;;;11.42;42.66;98752.48;1805655;79;20900;-64
2021/04/23 08:45:17;;;;;;;7.78;2.67;;;;;;;11.30;42.51;98750.61;1805811;79;20998;-64
2021/04/23 08:47:47;;;;;;;4.78;2.10;;;;;;;11.14;42.69;98748.94;1806025;79;22399;-64
2021/04/23 08:50:19;;;;;;;5.58;2.20;;;;;;;10.99;43.01;98747.28;1805732;79;20940;-64
2021/04/23 08:52:48;;;;;;;4.50;3.00;;;;;;;10.88;43.00;98747.09;1805744;79;20909;-64
2021/04/23 08:55:20;;;;;;;4.33;2.62;;;;;;;10.79;42.64;98750.77;1805854;79;20928;-62
2021/04/23 08:57:49;;;;;;;4.53;2.52;;;;;;;10.68;43.83;98760.00;1802288;79;20988;-63
2021/04/23 09:00:19;;;;;;;4.53;2.05;;;;;;;10.71;42.51;98746.88;1805694;79;21307;-63
2021/04/23 09:02:46;;;;;;;3.12;1.75;;;;;;;10.80;42.13;98751.62;1805680;79;20924;-62
2021/04/23 09:05:14;;;;;;;5.22;2.10;;;;;;;10.80;41.38;98748.47;1805733;78;21425;-63
2021/04/23 09:08:05;;;;;;;5.30;1.70;;;;;;;10.77;41.73;98732.55;1805740;79;20885;-62
2021/04/23 09:10:37;;;;;;;4.22;1.98;;;;;;;10.76;41.50;98744.25;1805759;79;20914;-64
2021/04/23 09:13:16;;;;;;;5.10;2.35;;;;;;;10.73;42.46;98743.10;1805771;79;21416;-63
2021/04/23 09:15:46;;;;;;;3.35;1.80;;;;;;;10.68;42.21;98741.20;1805660;79;20924;-62
2021/04/23 09:18:24;;;;;;;3.27;1.82;;;;;;;10.62;41.79;98734.88;1805746;79;20917;-63
2021/04/23 09:21:02;;;;;;;6.97;2.65;;;;;;;10.53;42.17;98744.86;1805700;79;20989;-63
2021/04/23 09:23:32;;;;;;;2.12;1.27;;;;;;;10.49;42.39;98735.66;1805731;79;20987;-63
2021/04/23 09:25:59;;;;;;;7.15;1.85;;;;;;;10.49;41.30;98742.86;1805775;79;21386;-64
2021/04/23 09:28:40;;;;;;;3.27;1.50;;;;;;;10.48;41.24;98739.32;1805621;79;20983;-63
2021/04/23 09:31:30;;;;;;;3.35;1.87;;;;;;;10.41;40.51;98742.00;1805730;79;21008;-64
2021/04/23 09:34:06;;;;;;;3.92;1.90;;;;;;;10.29;40.92;98752.13;1805740;79;21326;-64
2021/04/23 09:36:46;;;;;;;3.37;1.70;;;;;;;10.13;40.46;98755.77;1805804;79;21326;-63
2021/04/23 09:39:23;;;;;;;4.75;1.70;;;;;;;10.03;41.32;98743.89;1805717;79;21347;-63
2021/04/23 09:42:10;;;;;;;6.10;2.17;;;;;;;9.94;42.32;98748.47;1805554;79;21429;-67
2021/04/23 09:44:42;;;;;;;5.78;2.27;;;;;;;9.87;43.04;98741.74;1805300;79;21457;-70
2021/04/23 09:47:22;;;;;;;4.10;2.00;;;;;;;9.83;42.31;98754.98;1805683;79;20991;-66
2021/04/23 09:49:59;;;;;;;3.98;1.75;;;;;;;9.82;43.90;98748.73;1805734;79;20951;-68
2021/04/23 09:52:30;;;;;;;4.10;1.92;;;;;;;9.80;44.29;98756.50;1805507;79;21352;-67
2021/04/23 09:55:03;;;;;;;3.50;1.65;;;;;;;9.73;44.14;98751.50;1805580;79;21011;-67
2021/04/23 09:57:40;;;;;;;7.67;1.87;;;;;;;9.65;43.84;98749.77;1805756;79;20987;-67
2021/04/23 10:00:10;;;;;;;5.33;2.02;;;;;;;9.57;44.11;98757.42;1805704;79;21031;-67
2021/04/23 10:02:40;;;;;;;4.37;2.20;;;;;;;9.50;44.73;98758.72;1805920;79;21024;-68
2021/04/23 10:05:09;;;;;;;2.30;1.60;;;;;;;9.50;44.73;98758.72;1805681;79;21526;-69
2021/04/23 10:07:36;;;;;;;4.72;1.98;;;;;;;9.38;43.64;98763.86;1805627;79;20948;-68
2021/04/23 10:10:11;;;;;;;3.83;1.95;;;;;;;9.37;44.57;98761.27;1805686;79;20908;-67
2021/04/23 10:13:02;;;;;;;2.42;1.62;;;;;;;9.22;43.44;98756.31;1805649;79;21397;-68
2021/04/23 10:15:41;;;;;;;2.83;1.40;;;;;;;9.19;44.01;98760.05;1805723;79;20921;-69
2021/04/23 10:18:11;;;;;;;3.52;1.42;;;;;;;9.18;45.13;98765.50;1805995;79;22058;-69
2021/04/23 10:20:47;;;;;;;2.85;1.77;;;;;;;9.17;45.71;98749.02;1805854;79;20996;-67
2021/04/23 10:23:17;;;;;;;4.85;2.10;;;;;;;9.18;44.79;98762.81;1805954;79;20913;-68
2021/04/23 10:25:46;;;;;;;4.67;2.00;;;;;;;9.21;45.72;98749.24;1805830;79;20913;-68
2021/04/23 10:28:22;;;;;;;3.70;2.10;;;;;;;9.29;45.14;98757.70;1805962;78;20869;-66
2021/04/23 10:30:53;;;;;;;4.30;2.00;;;;;;;9.32;44.27;98749.47;1806017;79;21361;-68
2021/04/23 10:33:22;;;;;;;7.30;2.20;;;;;;;9.38;45.18;98746.44;1805790;79;21006;-68
2021/04/23 10:35:54;;;;;;;4.85;2.08;;;;;;;9.47;45.31;98743.67;1805847;79;20999;-67
2021/04/23 10:38:29;;;;;;;5.47;2.62;;;;;;;9.55;44.47;98738.73;1805873;79;21003;-66
2021/04/23 10:41:05;;;;;;;6.58;2.45;;;;;;;9.66;46.13;98738.55;1805610;79;21035;-73
2021/04/23 10:43:33;;;;;;;4.42;1.82;;;;;;;9.81;45.63;98734.95;1806017;79;22297;-67
2021/04/23 10:46:09;;;;;;;6.15;2.08;;;;;;;9.95;45.55;98724.72;1805928;79;21430;-68
2021/04/23 10:48:42;;;;;;;3.75;2.10;;;;;;;10.07;45.14;98722.59;1805819;79;20920;-67
2021/04/23 10:51:25;;;;;;;6.22;2.00;;;;;;;10.17;44.35;98731.42;1805843;79;20976;-67
2021/04/23 10:53:56;;;;;;;4.80;1.70;;;;;;;10.21;44.31;98734.31;1806137;79;20928;-68
2021/04/23 10:56:35;;;;;;;7.60;2.12;;;;;;;10.22;43.55;98727.98;1805242;79;21360;-68
2021/04/23 10:59:10;;;;;;;5.62;2.33;;;;;;;10.15;44.20;98722.61;1805628;79;21019;-67
2021/04/23 11:01:40;;;;;;;3.62;2.65;;;;;;;10.11;44.04;98731.34;1801355;79;20964;-66
2021/04/23 11:04:15;;;;;;;5.28;2.20;;;;;;;10.05;43.90;98731.23;1805884;79;21476;-68
2021/04/23 11:06:52;;;;;;;3.45;2.10;;;;;;;9.99;43.22;98735.63;1810544;79;20897;-67
2021/04/23 11:09:23;;;;;;;8.23;2.35;;;;;;;9.92;44.06;98743.69;1814948;79;21358;-67
2021/04/23 11:12:11;;;;;;;8.03;2.75;;;;;;;9.80;44.76;98748.45;1814808;79;20979;-68
2021/04/23 11:14:42;;;;;;;8.30;2.92;;;;;;;9.66;45.43;98751.97;1814965;79;21019;-66
2021/04/23 11:17:22;;;;;;;6.20;3.45;;;;;;;9.54;47.74;98757.59;1814916;79;21003;-67
2021/04/23 11:19:50;;;;;;;5.37;2.65;;;;;;;9.36;50.23;98764.41;1815057;79;20979;-68
2021/04/23 11:22:28;;;;;;;6.50;3.33;;;;;;;9.13;50.86;98775.59;1814928;79;21191;-67
2021/04/23 11:25:15;;;;;;;4.22;2.80;;;;;;;8.96;52.58;98774.77;1814993;79;21473;-68
2021/04/23 11:28:07;;;;;;;5.83;2.95;;;;;;;8.78;52.49;98778.47;1814956;79;20912;-66
2021/04/23 11:31:06;;;;;;;4.55;2.40;;;;;;;8.71;53.55;98769.06;1814855;79;20908;-67
2021/04/23 11:33:58;;;;;;;4.60;3.00;;;;;;;8.71;51.82;98767.24;1814931;79;20924;-67
2021/04/23 11:36:36;;;;;;;7.83;2.75;;;;;;;8.82;53.88;98767.98;1814948;79;21323;-66
2021/04/23 11:39:11;;;;;;;4.80;2.37;;;;;;;8.93;53.07;98758.86;1814919;79;20924;-68
2021/04/23 11:41:41;;;;;;;4.83;2.90;;;;;;;9.07;51.74;98751.86;1815092;79;21007;-67
2021/04/23 11:44:49;;;;;;;9.00;2.65;;;;;;;9.16;48.95;98756.66;1781180;79;20991;-69
2021/04/23 11:47:35;;;;;;;6.17;2.35;;;;;;;9.23;49.12;98748.67;1814976;79;20865;-68
2021/04/23 11:50:12;;;;;;;2.92;1.95;;;;;;;9.30;47.80;98743.80;1814963;79;21358;-68
2021/04/23 11:52:44;;;;;;;4.75;2.27;;;;;;;9.33;48.25;98734.24;1813841;79;21011;-66
2021/04/23 11:55:16;;;;;;;5.62;2.22;;;;;;;9.38;47.16;98738.39;1814963;79;20996;-67